createdAt,value
2022-11-08T00:00:06.250Z,100403.59
2022-11-08T00:02:33.505Z,100398.66
2022-11-08T00:05:19.087Z,100416.50
2022-11-08T00:08:04.533Z,100405.13
2022-11-08T00:10:50.029Z,100399.31
2022-11-08T00:13:35.274Z,100405.88
2022-11-08T00:16:01.927Z,100396.13
2022-11-08T00:18:28.776Z,100404.22
2022-11-08T00:20:55.452Z,100401.69
2022-11-08T00:23:22.079Z,100385.91
2022-11-08T00:25:54.040Z,100404.25
2022-11-08T00:28:20.844Z,100399.56
2022-11-08T00:30:47.465Z,100390.50
2022-11-08T00:33:14.125Z,100391.56
2022-11-08T00:35:40.704Z,100382.78
2022-11-08T00:38:07.361Z,100382.34
2022-11-08T00:40:34.805Z,100381.84
2022-11-08T00:43:01.458Z,100388.66
2022-11-08T00:45:28.113Z,100382.47
2022-11-08T00:47:54.899Z,100388.50
2022-11-08T00:50:21.570Z,100389.47
2022-11-08T00:52:48.165Z,100387.09
2022-11-08T00:55:16.461Z,100378.34
2022-11-08T00:58:01.339Z,100379.69
2022-11-08T01:00:28.373Z,100372.19
2022-11-08T01:03:14.248Z,100369.50
2022-11-08T01:05:42.676Z,100373.94
2022-11-08T01:08:13.914Z,100366.44
2022-11-08T01:10:47.926Z,100367.94
2022-11-08T01:13:14.752Z,100363.81
2022-11-08T01:15:43.580Z,100376.59
2022-11-08T01:18:12.380Z,100371.88
2022-11-08T01:20:44.419Z,100371.25
2022-11-08T01:23:12.776Z,100364.34
2022-11-08T01:25:44.920Z,100369.13
2022-11-08T01:28:12.736Z,100358.78
2022-11-08T01:30:41.764Z,100356.09
2022-11-08T01:33:08.753Z,100350.78
2022-11-08T01:35:36.662Z,100345.28
2022-11-08T01:38:05.620Z,100339.53
2022-11-08T01:40:33.381Z,100344.66
2022-11-08T01:42:59.965Z,100336.19
2022-11-08T01:46:03.786Z,100330.34
2022-11-08T01:48:31.446Z,100323.25
2022-11-08T01:51:00.305Z,100330.75
2022-11-08T01:53:28.137Z,100327.56
2022-11-08T01:58:26.023Z,100324.91
2022-11-08T02:00:53.157Z,100316.25
2022-11-08T02:03:20.915Z,100316.00
2022-11-08T02:05:47.968Z,100312.09
2022-11-08T02:08:17.821Z,100315.69
2022-11-08T02:10:48.754Z,100308.53
2022-11-08T02:13:18.903Z,100296.44
2022-11-08T02:15:46.161Z,100294.00
2022-11-08T02:18:14.343Z,100303.97
2022-11-08T02:20:51.167Z,100306.34
2022-11-08T02:23:29.019Z,100303.41
2022-11-08T02:25:56.154Z,100301.63
2022-11-08T02:28:22.807Z,100301.47
2022-11-08T02:30:49.607Z,100291.72
2022-11-08T02:33:17.239Z,100292.28
2022-11-08T02:35:50.036Z,100289.53
2022-11-08T02:38:18.522Z,100292.53
2022-11-08T02:40:53.419Z,100294.66
2022-11-08T02:43:20.561Z,100291.09
2022-11-08T02:45:47.462Z,100299.19
2022-11-08T02:48:15.986Z,100289.63
2022-11-08T02:50:43.331Z,100285.25
2022-11-08T02:53:10.169Z,100284.75
2022-11-08T02:55:37.223Z,100279.78
2022-11-08T02:58:04.385Z,100277.09
2022-11-08T03:00:31.264Z,100276.28
2022-11-08T03:02:58.786Z,100276.44
2022-11-08T03:05:27.723Z,100277.09
2022-11-08T03:07:55.496Z,100269.03
2022-11-08T03:10:23.811Z,100272.13
2022-11-08T03:12:58.254Z,100269.13
2022-11-08T03:15:25.596Z,100275.81
2022-11-08T03:17:52.681Z,100273.13
2022-11-08T03:20:19.437Z,100265.88
2022-11-08T03:22:46.485Z,100267.25
2022-11-08T03:25:13.540Z,100258.72
2022-11-08T03:27:40.203Z,100263.34
2022-11-08T03:30:07.939Z,100259.03
2022-11-08T03:32:34.557Z,100256.91
2022-11-08T03:35:01.143Z,100246.50
2022-11-08T03:37:27.739Z,100243.75
2022-11-08T03:39:54.527Z,100239.03
2022-11-08T03:42:21.808Z,100247.81
2022-11-08T03:44:51.592Z,100247.97
2022-11-08T03:47:18.818Z,100247.09
2022-11-08T03:49:46.217Z,100239.34
2022-11-08T03:52:13.946Z,100242.13
2022-11-08T03:54:40.561Z,100227.84
2022-11-08T03:57:07.137Z,100233.16
2022-11-08T03:59:33.762Z,100227.53
2022-11-08T04:02:00.504Z,100226.16
2022-11-08T04:04:27.224Z,100214.91
2022-11-08T04:06:53.864Z,100210.28
2022-11-08T04:09:21.800Z,100220.31
2022-11-08T04:12:07.128Z,100230.03
2022-11-08T04:14:52.362Z,100224.53
2022-11-08T04:17:18.993Z,100221.63
2022-11-08T04:20:04.354Z,100227.28
2022-11-08T04:22:30.993Z,100211.44
2022-11-08T04:24:57.596Z,100217.53
2022-11-08T04:27:24.185Z,100218.69
2022-11-08T04:29:51.066Z,100211.19
2022-11-08T04:32:17.724Z,100217.53
2022-11-08T04:34:44.293Z,100213.88
2022-11-08T04:37:10.848Z,100220.53
2022-11-08T04:39:37.445Z,100218.56
2022-11-08T04:42:04.204Z,100217.53
2022-11-08T04:44:30.848Z,100210.50
2022-11-08T04:46:57.512Z,100215.56
2022-11-08T04:49:24.129Z,100212.00
2022-11-08T04:51:50.808Z,100209.19
2022-11-08T04:54:17.499Z,100203.19
2022-11-08T04:56:44.072Z,100213.13
2022-11-08T04:59:12.087Z,100206.22
2022-11-08T05:01:39.307Z,100210.94
2022-11-08T05:04:06.088Z,100200.34
2022-11-08T05:06:32.887Z,100190.00
2022-11-08T05:09:00.325Z,100191.97
2022-11-08T05:11:29.733Z,100196.69
2022-11-08T05:13:56.667Z,100188.25
2022-11-08T05:16:26.247Z,100187.19
2022-11-08T05:18:53.221Z,100192.97
2022-11-08T05:21:40.219Z,100182.47
2022-11-08T05:24:09.824Z,100184.03
2022-11-08T05:26:39.963Z,100179.03
2022-11-08T05:29:06.566Z,100177.66
2022-11-08T05:31:33.305Z,100181.34
2022-11-08T05:34:00.761Z,100190.81
2022-11-08T05:36:28.627Z,100184.66
2022-11-08T05:38:55.910Z,100175.63
2022-11-08T05:41:24.007Z,100168.44
2022-11-08T05:43:52.449Z,100168.03
2022-11-08T05:46:20.698Z,100162.50
2022-11-08T05:48:48.511Z,100168.28
2022-11-08T05:51:17.489Z,100166.72
2022-11-08T05:53:44.183Z,100170.97
2022-11-08T05:56:11.529Z,100174.63
2022-11-08T05:58:38.261Z,100168.44
2022-11-08T06:01:07.269Z,100164.13
2022-11-08T06:03:34.142Z,100168.53
2022-11-08T06:06:09.618Z,100157.38
2022-11-08T06:08:37.267Z,100155.50
2022-11-08T06:11:13.114Z,100148.03
2022-11-08T06:13:40.677Z,100144.16
2022-11-08T06:16:10.405Z,100143.22
2022-11-08T06:18:37.861Z,100145.78
2022-11-08T06:21:06.530Z,100151.09
2022-11-08T06:23:33.678Z,100152.09
2022-11-08T06:26:00.767Z,100156.88
2022-11-08T06:28:27.576Z,100156.25
2022-11-08T06:30:54.565Z,100170.97
2022-11-08T06:33:21.828Z,100170.25
2022-11-08T06:35:48.887Z,100169.84
2022-11-08T06:38:15.537Z,100172.53
2022-11-08T06:40:42.625Z,100176.84
2022-11-08T06:43:16.354Z,100170.16
2022-11-08T06:45:46.040Z,100164.22
2022-11-08T06:48:12.639Z,100171.97
2022-11-08T06:50:39.350Z,100172.63
2022-11-08T06:53:08.608Z,100181.31
2022-11-08T06:55:35.860Z,100175.31
2022-11-08T06:58:03.348Z,100179.91
2022-11-08T07:00:30.350Z,100170.97
2022-11-08T07:03:00.080Z,100171.59
2022-11-08T07:05:27.940Z,100166.72
2022-11-08T07:07:56.745Z,100175.88
2022-11-08T07:10:25.739Z,100182.16
2022-11-08T07:13:02.428Z,100180.16
2022-11-08T07:15:29.850Z,100182.72
2022-11-08T07:18:04.302Z,100188.88
2022-11-08T07:20:31.179Z,100179.53
2022-11-08T07:22:58.297Z,100167.91
2022-11-08T07:25:26.201Z,100173.91
2022-11-08T07:27:57.300Z,100170.38
2022-11-08T07:30:24.315Z,100171.94
2022-11-08T07:32:51.574Z,100172.50
2022-11-08T07:35:18.712Z,100166.94
2022-11-08T07:37:45.318Z,100181.50
2022-11-08T07:40:12.533Z,100183.84
2022-11-08T07:43:09.671Z,100184.34
2022-11-08T07:45:27.477Z,100181.44
2022-11-08T07:48:09.520Z,100174.81
2022-11-08T07:50:38.141Z,100181.06
2022-11-08T07:53:28.539Z,100186.47
2022-11-08T07:55:59.114Z,100180.00
2022-11-08T07:58:59.849Z,100170.13
2022-11-08T08:01:52.026Z,100179.22
2022-11-08T08:04:24.037Z,100178.50
2022-11-08T08:06:52.781Z,100176.28
2022-11-08T08:09:29.724Z,100175.19
2022-11-08T08:11:58.338Z,100186.19
2022-11-08T08:14:45.986Z,100201.78
2022-11-08T08:17:13.526Z,100201.78
2022-11-08T08:19:40.121Z,100218.34
2022-11-08T08:22:10.858Z,100212.16
2022-11-08T08:24:50.773Z,100203.22
2022-11-08T08:27:17.409Z,100198.53
2022-11-08T08:29:47.247Z,100196.78
2022-11-08T08:32:14.700Z,100200.09
2022-11-08T08:35:13.422Z,100207.25
2022-11-08T08:38:01.834Z,100203.75
2022-11-08T08:40:29.245Z,100204.03
2022-11-08T08:43:17.129Z,100213.47
2022-11-08T08:45:47.068Z,100209.72
2022-11-08T08:48:35.836Z,100224.38
2022-11-08T08:51:07.755Z,100220.00
2022-11-08T08:53:34.812Z,100220.44
2022-11-08T08:56:06.823Z,100214.47
2022-11-08T08:58:34.638Z,100221.59
2022-11-08T09:04:28.137Z,100221.94
2022-11-08T09:07:12.001Z,100216.22
2022-11-08T09:09:43.905Z,100212.78
2022-11-08T09:12:14.390Z,100218.97
2022-11-08T09:14:41.414Z,100219.31
2022-11-08T09:17:08.013Z,100225.09
2022-11-08T09:19:34.712Z,100229.13
2022-11-08T09:22:01.621Z,100221.47
2022-11-08T09:24:28.352Z,100231.28
2022-11-08T09:26:55.013Z,100226.28
2022-11-08T09:29:21.722Z,100225.88
2022-11-08T09:31:49.764Z,100225.06
2022-11-08T09:34:19.222Z,100220.00
2022-11-08T09:36:51.583Z,100224.19
2022-11-08T09:39:18.557Z,100222.38
2022-11-08T09:42:06.531Z,100215.38
2022-11-08T09:44:41.755Z,100221.59
2022-11-08T09:47:20.659Z,100209.78
2022-11-08T09:49:58.293Z,100206.00
2022-11-08T09:52:27.237Z,100208.16
2022-11-08T09:55:01.765Z,100209.78
2022-11-08T09:57:38.849Z,100215.75
2022-11-08T10:00:07.446Z,100223.06
2022-11-08T10:02:36.320Z,100221.19
2022-11-08T10:05:09.407Z,100207.97
2022-11-08T10:07:45.977Z,100208.50
2022-11-08T10:10:36.008Z,100209.31
2022-11-08T10:13:28.922Z,100217.69
2022-11-08T10:16:11.112Z,100211.63
2022-11-08T10:19:22.540Z,100217.50
2022-11-08T10:21:58.421Z,100212.91
2022-11-08T10:24:35.743Z,100214.69
2022-11-08T10:27:10.491Z,100198.75
2022-11-08T10:29:43.168Z,100202.00
2022-11-08T10:32:18.298Z,100210.91
2022-11-08T10:34:56.354Z,100204.97
2022-11-08T10:37:24.899Z,100193.91
2022-11-08T10:39:56.826Z,100201.19
2022-11-08T10:42:50.362Z,100205.00
2022-11-08T10:45:17.127Z,100198.78
2022-11-08T10:47:46.100Z,100200.94
2022-11-08T10:50:20.765Z,100200.09
2022-11-08T10:53:02.685Z,100195.25
2022-11-08T10:55:48.761Z,100188.22
2022-11-08T10:58:41.750Z,100189.03
2022-11-08T11:01:20.344Z,100183.38
2022-11-08T11:03:50.733Z,100189.28
2022-11-08T11:06:34.506Z,100188.44
2022-11-08T11:09:18.232Z,100183.88
2022-11-08T11:11:53.594Z,100175.50
2022-11-08T11:14:23.536Z,100171.72
2022-11-08T11:17:14.295Z,100171.16
2022-11-08T11:19:53.983Z,100170.56
2022-11-08T11:22:33.683Z,100163.53
2022-11-08T11:25:15.611Z,100170.25
2022-11-08T11:27:45.320Z,100176.81
2022-11-08T11:30:18.147Z,100176.56
2022-11-08T11:33:00.456Z,100162.22
2022-11-08T11:35:45.413Z,100160.31
2022-11-08T11:38:28.097Z,100162.78
2022-11-08T11:41:00.980Z,100153.03
2022-11-08T11:43:37.445Z,100158.72
2022-11-08T11:46:41.639Z,100162.53
2022-11-08T11:49:17.539Z,100152.22
2022-11-08T11:51:46.899Z,100161.69
2022-11-08T11:54:17.096Z,100151.94
2022-11-08T11:57:09.672Z,100158.41
2022-11-08T12:00:14.478Z,100153.00
2022-11-08T12:03:04.693Z,100150.59
2022-11-08T12:05:52.627Z,100139.22
2022-11-08T12:08:40.846Z,100142.50
2022-11-08T12:11:35.556Z,100145.16
2022-11-08T12:14:30.539Z,100127.56
2022-11-08T12:17:05.415Z,100125.44
2022-11-08T12:20:09.140Z,100126.25
2022-11-08T12:22:57.348Z,100116.81
2022-11-08T12:25:28.308Z,100117.25
2022-11-08T12:28:32.551Z,100120.44
2022-11-08T12:31:24.009Z,100115.63
2022-11-08T12:34:07.485Z,100115.09
2022-11-08T12:36:46.277Z,100118.59
2022-11-08T12:39:32.326Z,100108.28
2022-11-08T12:42:21.815Z,100097.41
2022-11-08T12:45:08.378Z,100105.91
2022-11-08T12:47:44.149Z,100099.66
2022-11-08T12:50:27.883Z,100091.19
2022-11-08T12:53:22.082Z,100096.09
2022-11-08T12:55:51.913Z,100089.34
2022-11-08T12:58:46.495Z,100092.88
2022-11-08T13:01:17.019Z,100090.66
2022-11-08T13:04:00.601Z,100086.31
2022-11-08T13:06:58.058Z,100080.34
2022-11-08T13:09:40.280Z,100080.66
2022-11-08T13:12:49.837Z,100076.50
2022-11-08T13:15:21.747Z,100074.94
2022-11-08T13:18:06.955Z,100081.06
2022-11-08T13:20:43.079Z,100083.47
2022-11-08T13:23:33.105Z,100073.13
2022-11-08T13:26:24.335Z,100078.19
2022-11-08T13:28:51.938Z,100076.03
2022-11-08T13:31:50.773Z,100072.56
2022-11-08T13:34:26.485Z,100072.06
2022-11-08T13:37:06.086Z,100075.56
2022-11-08T13:39:57.002Z,100069.41
2022-11-08T13:42:23.539Z,100074.75
2022-11-08T13:44:59.257Z,100081.09
2022-11-08T13:47:32.657Z,100079.31
2022-11-08T13:50:27.201Z,100079.66
2022-11-08T13:53:18.951Z,100076.03
2022-11-08T13:56:09.536Z,100061.53
2022-11-08T13:58:45.035Z,100079.38
2022-11-08T14:01:22.209Z,100069.38
2022-11-08T14:03:52.600Z,100067.09
2022-11-08T14:06:52.001Z,100059.78
2022-11-08T14:09:56.605Z,100057.91
2022-11-08T14:12:37.889Z,100059.38
2022-11-08T14:15:33.548Z,100050.16
2022-11-08T14:18:04.983Z,100056.59
2022-11-08T14:20:36.831Z,100039.88
2022-11-08T14:23:23.856Z,100045.16
2022-11-08T14:25:55.582Z,100055.19
2022-11-08T14:28:26.726Z,100049.00
2022-11-08T14:30:53.811Z,100047.00
2022-11-08T14:33:23.325Z,100038.66
2022-11-08T14:36:16.378Z,100045.25
2022-11-08T14:38:50.339Z,100048.09
2022-11-08T14:41:24.769Z,100045.97
2022-11-08T14:43:53.255Z,100039.34
2022-11-08T14:46:29.466Z,100039.09
2022-11-08T14:48:57.283Z,100034.84
2022-11-08T14:51:25.967Z,100034.47
2022-11-08T14:53:54.726Z,100030.56
2022-11-08T14:56:27.772Z,100031.19
2022-11-08T14:58:58.583Z,100033.53
2022-11-08T15:01:33.174Z,100023.91
2022-11-08T15:04:41.635Z,100028.97
2022-11-08T15:07:19.279Z,100024.19
2022-11-08T15:09:50.063Z,100029.91
2022-11-08T15:12:21.950Z,100019.13
2022-11-08T15:15:02.063Z,100020.75
2022-11-08T15:17:39.384Z,100020.88
2022-11-08T15:20:10.956Z,100024.50
2022-11-08T15:22:37.651Z,100030.19
2022-11-08T15:25:28.447Z,100017.44
2022-11-08T15:28:22.963Z,100022.81
2022-11-08T15:30:59.219Z,100025.69
2022-11-08T15:33:36.639Z,100028.75
2022-11-08T15:36:12.196Z,100037.91
2022-11-08T15:38:49.147Z,100033.63
2022-11-08T15:41:31.104Z,100030.38
2022-11-08T15:44:14.880Z,100027.28
2022-11-08T15:46:41.896Z,100023.41
2022-11-08T15:49:17.767Z,100027.28
2022-11-08T15:51:44.528Z,100020.50
2022-11-08T15:54:11.171Z,100031.16
2022-11-08T15:56:41.209Z,100011.22
2022-11-08T15:59:22.336Z,100018.00
2022-11-08T16:02:02.787Z,100020.25
2022-11-08T16:04:33.021Z,100020.81
2022-11-08T16:07:03.954Z,100015.53
2022-11-08T16:09:33.966Z,100023.44
2022-11-08T16:12:03.120Z,100014.25
2022-11-08T16:14:31.017Z,100007.81
2022-11-08T16:17:10.048Z,100014.91
2022-11-08T16:19:37.129Z,100009.69
2022-11-08T16:22:07.587Z,100013.09
2022-11-08T16:24:34.465Z,100005.41
2022-11-08T16:27:02.742Z,100002.41
2022-11-08T16:29:29.579Z,99991.88
2022-11-08T16:31:56.292Z,99998.41
2022-11-08T16:34:23.222Z,99993.00
2022-11-08T16:36:50.194Z,100001.28
2022-11-08T16:39:21.168Z,100001.59
2022-11-08T16:41:47.825Z,100005.00
2022-11-08T16:44:14.840Z,100003.56
2022-11-08T16:46:41.530Z,100006.28
2022-11-08T16:49:19.173Z,100010.22
2022-11-08T16:51:45.881Z,100007.78
2022-11-08T16:54:18.251Z,100006.00
2022-11-08T16:56:45.397Z,100008.41
2022-11-08T16:59:12.071Z,100005.47
2022-11-08T17:01:39.865Z,100010.16
2022-11-08T17:04:06.592Z,100005.38
2022-11-08T17:06:33.585Z,100020.72
2022-11-08T17:09:04.012Z,100016.63
2022-11-08T17:11:38.093Z,100019.94
2022-11-08T17:14:05.362Z,100017.31
2022-11-08T17:16:35.937Z,100016.13
2022-11-08T17:19:10.151Z,100021.06
2022-11-08T17:21:45.800Z,100019.72
2022-11-08T17:24:21.264Z,100030.25
2022-11-08T17:26:53.557Z,100026.78
2022-11-08T17:29:21.197Z,100025.94
2022-11-08T17:31:48.424Z,100024.50
2022-11-08T17:34:16.611Z,100032.13
2022-11-08T17:36:43.405Z,100034.06
2022-11-08T17:39:14.996Z,100025.09
2022-11-08T17:41:42.258Z,100020.66
2022-11-08T17:44:09.245Z,100023.16
2022-11-08T17:46:37.041Z,100027.53
2022-11-08T17:49:05.077Z,100019.66
2022-11-08T17:51:32.707Z,100034.44
2022-11-08T17:53:59.981Z,100030.88
2022-11-08T17:56:27.285Z,100028.53
2022-11-08T17:58:54.159Z,100027.00
2022-11-08T18:01:21.244Z,100026.25
2022-11-08T18:03:48.215Z,100033.66
2022-11-08T18:06:19.286Z,100032.09
2022-11-08T18:08:46.101Z,100032.84
2022-11-08T18:11:12.792Z,100035.19
2022-11-08T18:13:39.518Z,100040.28
2022-11-08T18:16:17.794Z,100043.88
2022-11-08T18:18:46.293Z,100039.03
2022-11-08T18:21:14.400Z,100039.94
2022-11-08T18:23:43.247Z,100042.63
2022-11-08T18:26:10.623Z,100040.31
2022-11-08T18:28:38.884Z,100046.59
2022-11-08T18:31:08.132Z,100048.31
2022-11-08T18:33:35.896Z,100039.34
2022-11-08T18:36:07.866Z,100035.63
2022-11-08T18:38:41.963Z,100031.56
2022-11-08T18:41:08.846Z,100036.69
2022-11-08T18:43:35.501Z,100037.72
2022-11-08T18:46:04.571Z,100034.53
2022-11-08T18:48:35.445Z,100044.28
2022-11-08T18:51:03.628Z,100037.63
2022-11-08T18:53:30.473Z,100039.56
2022-11-08T18:55:57.793Z,100031.13
2022-11-08T18:58:25.028Z,100039.47
2022-11-08T19:00:53.663Z,100019.22
2022-11-08T19:03:22.639Z,100021.66
2022-11-08T19:05:51.428Z,100022.13
2022-11-08T19:08:21.467Z,100020.84
2022-11-08T19:10:56.361Z,100017.84
2022-11-08T19:13:29.106Z,100022.38
2022-11-08T19:16:07.210Z,100014.00
2022-11-08T19:18:35.981Z,100024.75
2022-11-08T19:21:07.048Z,100020.22
2022-11-08T19:23:35.355Z,100025.88
2022-11-08T19:26:05.155Z,100035.94
2022-11-08T19:28:34.238Z,100035.06
2022-11-08T19:31:01.225Z,100041.03
2022-11-08T19:33:29.442Z,100036.84
2022-11-08T19:36:01.022Z,100043.69
2022-11-08T19:38:27.806Z,100046.47
2022-11-08T19:40:54.938Z,100037.84
2022-11-08T19:43:21.706Z,100045.94
2022-11-08T19:45:53.027Z,100044.91
2022-11-08T19:48:20.645Z,100040.31
2022-11-08T19:50:48.025Z,100035.88
2022-11-08T19:53:14.839Z,100033.81
2022-11-08T19:55:41.610Z,100024.63
2022-11-08T19:58:08.394Z,100032.78
2022-11-08T20:00:36.706Z,100038.47
2022-11-08T20:03:06.935Z,100036.59
2022-11-08T20:05:33.788Z,100029.78
2022-11-08T20:08:04.786Z,100038.44
2022-11-08T20:10:31.570Z,100035.19
2022-11-08T20:12:58.260Z,100034.41
2022-11-08T20:15:25.055Z,100042.00
2022-11-08T20:17:51.825Z,100037.44
2022-11-08T20:20:19.280Z,100034.44
2022-11-08T20:22:48.181Z,100043.91
2022-11-08T20:25:15.156Z,100049.06
2022-11-08T20:27:42.249Z,100053.06
2022-11-08T20:30:09.917Z,100053.88
2022-11-08T20:32:36.581Z,100047.41
2022-11-08T20:35:04.346Z,100045.28
2022-11-08T20:37:31.321Z,100042.56
2022-11-08T20:39:57.917Z,100039.28
2022-11-08T20:42:24.577Z,100036.34
2022-11-08T20:44:53.233Z,100053.09
2022-11-08T20:47:20.452Z,100045.75
2022-11-08T20:49:47.325Z,100046.56
2022-11-08T20:52:16.603Z,100057.84
2022-11-08T20:54:44.202Z,100045.75
2022-11-08T20:57:11.054Z,100057.94
2022-11-08T20:59:37.698Z,100062.25
2022-11-08T21:02:05.053Z,100061.72
2022-11-08T21:04:31.853Z,100070.09
2022-11-08T21:07:56.029Z,100075.22
2022-11-08T21:09:50.344Z,100072.81
2022-11-08T21:12:17.882Z,100070.38
2022-11-08T21:14:44.594Z,100067.66
2022-11-08T21:17:26.931Z,100068.75
2022-11-08T21:19:54.014Z,100069.78
2022-11-08T21:22:20.825Z,100071.41
2022-11-08T21:24:48.313Z,100075.75
2022-11-08T21:27:15.752Z,100070.94
2022-11-08T21:29:42.918Z,100074.72
2022-11-08T21:32:09.549Z,100073.88
2022-11-08T21:34:36.546Z,100066.06
2022-11-08T21:37:03.221Z,100072.00
2022-11-08T21:39:30.115Z,100069.56
2022-11-08T21:41:56.801Z,100074.16
2022-11-08T21:44:23.440Z,100084.88
2022-11-08T21:46:50.133Z,100085.47
2022-11-08T21:49:16.960Z,100083.88
2022-11-08T21:51:43.679Z,100083.88
2022-11-08T21:54:10.316Z,100065.81
2022-11-08T21:56:38.143Z,100058.50
2022-11-08T21:59:11.649Z,100066.31
2022-11-08T22:01:40.294Z,100061.47
2022-11-08T22:04:08.679Z,100068.22
2022-11-08T22:06:36.226Z,100060.66
2022-11-08T22:09:03.449Z,100057.41
2022-11-08T22:11:35.955Z,100055.81
2022-11-08T22:14:03.884Z,100059.59
2022-11-08T22:16:30.711Z,100056.88
2022-11-08T22:19:04.783Z,100067.94
2022-11-08T22:21:40.407Z,100061.75
2022-11-08T22:24:13.625Z,100063.38
2022-11-08T22:26:41.618Z,100061.75
2022-11-08T22:29:11.676Z,100064.19
2022-11-08T22:31:38.868Z,100055.25
2022-11-08T22:34:08.358Z,100062.28
2022-11-08T22:36:41.447Z,100064.97
2022-11-08T22:39:17.995Z,100066.03
2022-11-08T22:41:46.973Z,100067.13
2022-11-08T22:44:17.933Z,100059.06
2022-11-08T22:46:51.514Z,100062.59
2022-11-08T22:49:23.108Z,100063.38
2022-11-08T22:51:49.918Z,100052.59
2022-11-08T22:54:20.450Z,100049.09
2022-11-08T22:56:51.819Z,100045.56
2022-11-08T22:59:18.627Z,100038.50
2022-11-08T23:01:45.824Z,100034.75
2022-11-08T23:04:14.117Z,100033.94
2022-11-08T23:06:49.667Z,100022.06
2022-11-08T23:09:16.590Z,100020.44
2022-11-08T23:12:02.707Z,100035.56
2022-11-08T23:14:48.606Z,100039.59
2022-11-08T23:17:16.874Z,100041.50
2022-11-08T23:20:02.131Z,100048.25
2022-11-08T23:22:48.599Z,100036.88
2022-11-08T23:25:15.414Z,100031.78
2022-11-08T23:28:00.695Z,100030.44
2022-11-08T23:30:46.014Z,100031.50
2022-11-08T23:33:12.692Z,100029.28
2022-11-08T23:35:59.352Z,100016.06
2022-11-08T23:38:25.955Z,100015.00
2022-11-08T23:41:10.939Z,100020.13
2022-11-08T23:43:56.140Z,100023.06
2022-11-08T23:46:22.810Z,100029.59
2022-11-08T23:48:49.516Z,100030.91
2022-11-08T23:51:16.141Z,100035.00
2022-11-08T23:53:43.859Z,100042.00
2022-11-08T23:56:13.085Z,100049.81
2022-11-08T23:58:39.660Z,100046.56
